sensor_id;sensor_type;location;lat;lon;timestamp;pressure;altitude;pressure_sealevel;temperature;humidity
39699;BME280;25372;50.582;12.250;2023-01-28T00:01:59;100703.19;;;-0.76;100.00
39699;BME280;25372;50.582;12.250;2023-01-28T00:12:21;100692.78;;;-0.76;100.00
39699;BME280;25372;50.582;12.250;2023-01-28T00:22:45;100678.81;;;-0.90;100.00
39699;BME280;25372;50.582;12.250;2023-01-28T00:33:08;100701.41;;;-0.90;100.00
39699;BME280;25372;50.582;12.250;2023-01-28T00:43:28;100694.38;;;-1.04;100.00
39699;BME280;25372;50.582;12.250;2023-01-28T00:53:50;100705.03;;;-0.93;100.00
39699;BME280;25372;50.582;12.250;2023-01-28T01:04:12;100701.75;;;-0.96;100.00
39699;BME280;25372;50.582;12.250;2023-01-28T01:14:47;100696.22;;;-0.90;100.00
39699;BME280;25372;50.582;12.250;2023-01-28T01:25:09;100700.88;;;-0.81;100.00
39699;BME280;25372;50.582;12.250;2023-01-28T01:35:32;100689.22;;;-0.90;100.00
39699;BME280;25372;50.582;12.250;2023-01-28T01:45:54;100712.06;;;-0.95;100.00
39699;BME280;25372;50.582;12.250;2023-01-28T01:56:20;100701.31;;;-0.89;100.00
39699;BME280;25372;50.582;12.250;2023-01-28T02:06:43;100698.13;;;-0.94;100.00
39699;BME280;25372;50.582;12.250;2023-01-28T02:17:06;100680.84;;;-0.95;100.00
39699;BME280;25372;50.582;12.250;2023-01-28T02:27:32;100692.56;;;-0.88;100.00
39699;BME280;25372;50.582;12.250;2023-01-28T02:38:02;100701.41;;;-0.90;100.00
39699;BME280;25372;50.582;12.250;2023-01-28T02:48:23;100714.44;;;-0.90;100.00
39699;BME280;25372;50.582;12.250;2023-01-28T02:58:52;100722.16;;;-0.89;100.00
39699;BME280;25372;50.582;12.250;2023-01-28T03:09:16;100705.41;;;-1.15;100.00
39699;BME280;25372;50.582;12.250;2023-01-28T03:19:48;100728.56;;;-1.10;100.00
39699;BME280;25372;50.582;12.250;2023-01-28T03:30:35;100732.06;;;-1.11;100.00
39699;BME280;25372;50.582;12.250;2023-01-28T03:41:28;100729.50;;;-1.27;100.00
39699;BME280;25372;50.582;12.250;2023-01-28T03:51:51;100742.41;;;-1.26;100.00
39699;BME280;25372;50.582;12.250;2023-01-28T04:02:13;100741.84;;;-1.31;100.00
39699;BME280;25372;50.582;12.250;2023-01-28T04:12:34;100753.50;;;-1.54;100.00
39699;BME280;25372;50.582;12.250;2023-01-28T04:22:58;100750.47;;;-1.62;100.00
39699;BME280;25372;50.582;12.250;2023-01-28T04:33:20;100753.63;;;-1.89;100.00
39699;BME280;25372;50.582;12.250;2023-01-28T04:43:48;100758.66;;;-1.86;100.00
39699;BME280;25372;50.582;12.250;2023-01-28T04:54:18;100764.06;;;-2.06;100.00
39699;BME280;25372;50.582;12.250;2023-01-28T05:04:41;100778.13;;;-2.28;100.00
39699;BME280;25372;50.582;12.250;2023-01-28T05:15:08;100789.91;;;-2.38;100.00
39699;BME280;25372;50.582;12.250;2023-01-28T05:25:31;100793.25;;;-2.36;100.00
39699;BME280;25372;50.582;12.250;2023-01-28T05:35:51;100810.75;;;-2.40;100.00
39699;BME280;25372;50.582;12.250;2023-01-28T05:46:15;100813.41;;;-2.59;100.00
39699;BME280;25372;50.582;12.250;2023-01-28T05:56:56;100818.84;;;-2.46;100.00
39699;BME280;25372;50.582;12.250;2023-01-28T06:07:18;100827.38;;;-2.61;100.00
39699;BME280;25372;50.582;12.250;2023-01-28T06:17:40;100857.63;;;-2.60;100.00
39699;BME280;25372;50.582;12.250;2023-01-28T06:28:15;100861.38;;;-2.85;100.00
39699;BME280;25372;50.582;12.250;2023-01-28T06:38:36;100875.53;;;-2.73;99.23
39699;BME280;25372;50.582;12.250;2023-01-28T06:48:57;100896.28;;;-2.73;100.00
39699;BME280;25372;50.582;12.250;2023-01-28T06:59:18;100895.72;;;-2.80;99.48
39699;BME280;25372;50.582;12.250;2023-01-28T07:09:40;100917.06;;;-2.92;97.81
39699;BME280;25372;50.582;12.250;2023-01-28T07:20:01;100917.25;;;-2.97;95.14
39699;BME280;25372;50.582;12.250;2023-01-28T07:30:24;100914.72;;;-2.79;94.82
39699;BME280;25372;50.582;12.250;2023-01-28T07:40:45;100919.28;;;-2.85;96.25
39699;BME280;25372;50.582;12.250;2023-01-28T07:51:07;100917.78;;;-2.71;94.48
39699;BME280;25372;50.582;12.250;2023-01-28T08:01:28;100919.63;;;-2.73;90.60
39699;BME280;25372;50.582;12.250;2023-01-28T08:11:51;100923.13;;;-2.74;88.85
39699;BME280;25372;50.582;12.250;2023-01-28T08:22:11;100927.19;;;-2.69;85.67
39699;BME280;25372;50.582;12.250;2023-01-28T08:32:33;100918.06;;;-2.58;86.05
39699;BME280;25372;50.582;12.250;2023-01-28T08:42:54;100930.53;;;-2.48;88.93
39699;BME280;25372;50.582;12.250;2023-01-28T08:53:18;100939.81;;;-2.61;84.81
39699;BME280;25372;50.582;12.250;2023-01-28T09:03:39;100959.28;;;-2.33;85.52
39699;BME280;25372;50.582;12.250;2023-01-28T09:14:01;100960.75;;;-2.28;83.39
39699;BME280;25372;50.582;12.250;2023-01-28T09:24:22;100963.75;;;-2.18;82.84
39699;BME280;25372;50.582;12.250;2023-01-28T09:34:44;100975.00;;;-2.36;82.11
39699;BME280;25372;50.582;12.250;2023-01-28T09:45:11;100968.19;;;-2.20;79.54
39699;BME280;25372;50.582;12.250;2023-01-28T09:55:38;100979.09;;;-2.13;77.86
39699;BME280;25372;50.582;12.250;2023-01-28T10:06:10;100975.47;;;-1.91;78.55
39699;BME280;25372;50.582;12.250;2023-01-28T10:16:41;100978.69;;;-1.86;79.62
39699;BME280;25372;50.582;12.250;2023-01-28T10:27:10;100983.56;;;-1.98;77.77
39699;BME280;25372;50.582;12.250;2023-01-28T10:37:36;100983.91;;;-2.05;81.24
39699;BME280;25372;50.582;12.250;2023-01-28T10:48:01;100994.88;;;-2.35;80.29
39699;BME280;25372;50.582;12.250;2023-01-28T10:58:28;101006.66;;;-2.47;80.50
39699;BME280;25372;50.582;12.250;2023-01-28T11:08:49;101007.91;;;-2.37;79.99
39699;BME280;25372;50.582;12.250;2023-01-28T11:19:11;101002.53;;;-2.51;80.69
39699;BME280;25372;50.582;12.250;2023-01-28T11:29:33;101004.91;;;-2.47;77.90
39699;BME280;25372;50.582;12.250;2023-01-28T11:40:15;100989.19;;;-2.43;78.91
39699;BME280;25372;50.582;12.250;2023-01-28T11:50:44;100974.34;;;-2.22;81.27
39699;BME280;25372;50.582;12.250;2023-01-28T12:01:12;100981.22;;;-2.21;81.09
39699;BME280;25372;50.582;12.250;2023-01-28T12:11:43;100978.56;;;-2.20;79.84
39699;BME280;25372;50.582;12.250;2023-01-28T12:22:49;100974.69;;;-2.30;79.02
39699;BME280;25372;50.582;12.250;2023-01-28T12:33:35;100967.06;;;-2.33;79.37
39699;BME280;25372;50.582;12.250;2023-01-28T12:44:02;100961.09;;;-2.35;79.58
39699;BME280;25372;50.582;12.250;2023-01-28T12:54:26;100958.25;;;-2.12;80.36
39699;BME280;25372;50.582;12.250;2023-01-28T13:04:55;100955.22;;;-2.02;79.19
39699;BME280;25372;50.582;12.250;2023-01-28T13:15:19;100949.28;;;-2.23;80.03
39699;BME280;25372;50.582;12.250;2023-01-28T13:25:48;100956.94;;;-2.20;79.57
39699;BME280;25372;50.582;12.250;2023-01-28T13:36:22;100958.25;;;-2.12;78.98
39699;BME280;25372;50.582;12.250;2023-01-28T13:46:46;100969.00;;;-2.19;78.91
39699;BME280;25372;50.582;12.250;2023-01-28T13:57:31;100973.31;;;-2.18;78.46
39699;BME280;25372;50.582;12.250;2023-01-28T14:08:24;100984.06;;;-2.08;78.84
39699;BME280;25372;50.582;12.250;2023-01-28T14:18:48;100980.38;;;-2.22;79.18
39699;BME280;25372;50.582;12.250;2023-01-28T14:29:19;100986.78;;;-2.29;81.33
39699;BME280;25372;50.582;12.250;2023-01-28T14:39:44;100988.69;;;-2.33;81.14
39699;BME280;25372;50.582;12.250;2023-01-28T14:50:09;100980.13;;;-2.35;81.65
39699;BME280;25372;50.582;12.250;2023-01-28T15:00:35;100997.03;;;-2.45;82.15
39699;BME280;25372;50.582;12.250;2023-01-28T15:11:00;100992.13;;;-2.32;82.83
39699;BME280;25372;50.582;12.250;2023-01-28T15:21:23;101000.88;;;-2.35;81.46
39699;BME280;25372;50.582;12.250;2023-01-28T15:31:47;100977.25;;;-2.48;79.28
39699;BME280;25372;50.582;12.250;2023-01-28T15:42:18;100972.06;;;-2.48;76.69
39699;BME280;25372;50.582;12.250;2023-01-28T15:52:41;100959.94;;;-2.47;76.17
39699;BME280;25372;50.582;12.250;2023-01-28T16:03:07;100958.25;;;-2.48;76.10
39699;BME280;25372;50.582;12.250;2023-01-28T16:13:30;100952.22;;;-2.49;79.10
39699;BME280;25372;50.582;12.250;2023-01-28T16:23:57;100955.91;;;-2.35;77.02
39699;BME280;25372;50.582;12.250;2023-01-28T16:34:19;100963.63;;;-2.34;76.73
39699;BME280;25372;50.582;12.250;2023-01-28T16:44:40;100978.03;;;-2.46;77.21
39699;BME280;25372;50.582;12.250;2023-01-28T16:55:03;100977.09;;;-2.25;76.89
39699;BME280;25372;50.582;12.250;2023-01-28T17:05:24;100976.97;;;-2.41;78.48
39699;BME280;25372;50.582;12.250;2023-01-28T17:15:47;100991.00;;;-2.46;79.03
39699;BME280;25372;50.582;12.250;2023-01-28T17:26:09;101013.25;;;-2.40;79.81
39699;BME280;25372;50.582;12.250;2023-01-28T17:36:33;101023.56;;;-2.38;80.68
39699;BME280;25372;50.582;12.250;2023-01-28T17:46:53;101038.44;;;-2.42;77.68
39699;BME280;25372;50.582;12.250;2023-01-28T17:57:15;101043.22;;;-2.52;84.83
39699;BME280;25372;50.582;12.250;2023-01-28T18:07:36;101040.63;;;-2.52;79.50
39699;BME280;25372;50.582;12.250;2023-01-28T18:17:58;101030.72;;;-2.43;84.31
39699;BME280;25372;50.582;12.250;2023-01-28T18:28:19;101036.47;;;-2.37;86.14
39699;BME280;25372;50.582;12.250;2023-01-28T18:38:41;101043.84;;;-2.47;88.37
39699;BME280;25372;50.582;12.250;2023-01-28T18:49:02;101055.63;;;-2.58;87.09
39699;BME280;25372;50.582;12.250;2023-01-28T18:59:24;101078.69;;;-2.52;90.34
39699;BME280;25372;50.582;12.250;2023-01-28T19:09:45;101113.88;;;-2.45;90.65
39699;BME280;25372;50.582;12.250;2023-01-28T19:20:09;101131.06;;;-2.42;89.13
39699;BME280;25372;50.582;12.250;2023-01-28T19:30:30;101126.63;;;-2.40;89.39
39699;BME280;25372;50.582;12.250;2023-01-28T19:40:52;101107.94;;;-2.68;91.03
39699;BME280;25372;50.582;12.250;2023-01-28T19:51:14;101088.91;;;-3.28;91.79
39699;BME280;25372;50.582;12.250;2023-01-28T20:01:36;101097.00;;;-3.16;96.45
39699;BME280;25372;50.582;12.250;2023-01-28T20:11:57;101081.41;;;-2.74;90.04
39699;BME280;25372;50.582;12.250;2023-01-28T20:22:19;101074.53;;;-2.75;91.14
39699;BME280;25372;50.582;12.250;2023-01-28T20:32:40;101048.88;;;-2.63;93.07
39699;BME280;25372;50.582;12.250;2023-01-28T20:43:02;101028.13;;;-2.63;93.72
39699;BME280;25372;50.582;12.250;2023-01-28T20:53:23;101062.44;;;-2.56;95.43
39699;BME280;25372;50.582;12.250;2023-01-28T21:03:45;101054.94;;;-2.43;91.52
39699;BME280;25372;50.582;12.250;2023-01-28T21:14:06;101072.84;;;-2.37;89.09
39699;BME280;25372;50.582;12.250;2023-01-28T21:24:28;101089.31;;;-2.38;87.93
39699;BME280;25372;50.582;12.250;2023-01-28T21:34:49;101111.13;;;-2.42;86.46
39699;BME280;25372;50.582;12.250;2023-01-28T21:45:11;101092.63;;;-2.34;86.99
39699;BME280;25372;50.582;12.250;2023-01-28T21:55:32;101101.19;;;-2.32;87.10
39699;BME280;25372;50.582;12.250;2023-01-28T22:05:54;101085.97;;;-2.40;87.80
39699;BME280;25372;50.582;12.250;2023-01-28T22:16:16;101075.91;;;-2.48;89.33
39699;BME280;25372;50.582;12.250;2023-01-28T22:26:39;101067.84;;;-2.41;88.09
39699;BME280;25372;50.582;12.250;2023-01-28T22:36:59;101068.69;;;-2.41;89.75
39699;BME280;25372;50.582;12.250;2023-01-28T22:47:22;101057.09;;;-2.34;90.94
39699;BME280;25372;50.582;12.250;2023-01-28T22:57:42;101054.94;;;-2.43;90.46
39699;BME280;25372;50.582;12.250;2023-01-28T23:08:06;101059.28;;;-2.43;91.30
39699;BME280;25372;50.582;12.250;2023-01-28T23:18:30;101066.38;;;-2.47;90.14
39699;BME280;25372;50.582;12.250;2023-01-28T23:29:10;101060.28;;;-2.46;91.07
39699;BME280;25372;50.582;12.250;2023-01-28T23:39:31;101046.28;;;-2.43;91.54
39699;BME280;25372;50.582;12.250;2023-01-28T23:49:53;101053.16;;;-2.61;89.66
